Du har inga inställningar för hoppväder.nu

Hoppväder.nu

Senast uppdaterat 04:20

UTC-tid

2020-11-26 kl. 03:20


Sol och måne

Solen går upp 8:40 och går ner 15:25 (beräknade cirkatider)
Nästa fullmåne blir om 4 dagar (2020-11-30)

METAR

ENRY (Moss, Rygge)
(30 minuter sedan)
ENRY 260250Z AUTO VRB02KT 9999NDV NCD 04/01 Q1009=



ESGT (Trollhättan/Vänersborg)
(30 minuter sedan)
ESGT 260250Z AUTO 22008KT 9999 R15///// R33///// -RA OVC006/// 08/07 Q1009 RERA=



ENTO (Sandefjord)
(30 minuter sedan)
ENTO 260250Z AUTO 31003KT 9999 NCD 04/04 Q1009=



ESIB (Såtenäs)
(30 minuter sedan)
ESIB 260250Z AUTO 20010KT 9999 -RA OVC006/// 08/08 Q1008=



ESOK (Karlstad)
(30 minuter sedan)
ESOK 260250Z AUTO 23005KT 9999 SCT079/// 07/07 Q1008=



TAF

ENRY (Moss, Rygge)
(260 minuter sedan)
ENRY 252300Z 2600/2624 32005KT 9999 FEW040=



ESGT (Trollhättan/Vänersborg)
ESGT



ENTO (Sandefjord)
(260 minuter sedan)
ENTO 252300Z 2600/2624 32005KT 9999 FEW040=



ESIB (Såtenäs)
ESIB



ESOK (Karlstad)
ESOK





Kodnycklar till TAF och METAR






LHP

(Näsinge är område se21e i Delområde 1)

Prognos är inte uppdaterad






Preliminär prognos